Time;durP1;ratioP1;P1;durP2;ratioP2;P2;SDS_P1;SDS_P2;PMS_P1;PMS_P2;Temp;Humidity;BMP_temperature;BMP_pressure;BME280_temperature;BME280_humidity;BME280_pressure;Samples;Min_cycle;Max_cycle;Signal;HPM_P1;HPM_P2
2023/04/29 00:00:14;;;;;;;1.30;0.93;;;13.90;58.30;;;;;;4915356;29;20227;-83
2023/04/29 00:02:43;;;;;;;1.30;1.00;;;13.90;58.40;;;;;;4914200;29;20207;-84
2023/04/29 00:05:12;;;;;;;1.83;0.80;;;13.90;58.40;;;;;;4915799;29;20199;-83
2023/04/29 00:07:41;;;;;;;3.63;0.77;;;13.80;59.00;;;;;;4908474;29;20199;-84
2023/04/29 00:10:13;;;;;;;0.60;0.60;;;13.80;58.40;;;;;;4911485;29;20278;-83
2023/04/29 00:12:43;;;;;;;2.10;1.07;;;13.80;58.80;;;;;;4908843;29;20247;-84
2023/04/29 00:15:12;;;;;;;1.10;0.77;;;13.80;58.90;;;;;;4907055;29;20215;-84
2023/04/29 00:17:40;;;;;;;0.80;0.70;;;13.80;58.90;;;;;;4908911;29;20237;-83
2023/04/29 00:20:10;;;;;;;3.33;0.97;;;13.80;58.90;;;;;;4911932;29;20251;-84
2023/04/29 00:22:39;;;;;;;0.67;0.67;;;13.70;59.00;;;;;;4911759;29;20236;-83
2023/04/29 00:25:09;;;;;;;1.50;0.97;;;13.70;59.10;;;;;;4890812;29;20200;-84
2023/04/29 00:27:38;;;;;;;1.47;0.80;;;13.60;59.10;;;;;;4900396;29;20208;-84
2023/04/29 00:30:09;;;;;;;1.63;1.13;;;13.60;59.20;;;;;;4901646;29;20223;-83
2023/04/29 00:32:38;;;;;;;1.13;1.03;;;13.60;59.30;;;;;;4907756;29;20218;-84
2023/04/29 00:35:07;;;;;;;0.50;0.50;;;13.60;59.40;;;;;;4912565;29;20699;-84
2023/04/29 00:37:36;;;;;;;1.87;1.07;;;13.50;59.40;;;;;;4909596;29;20200;-84
2023/04/29 00:40:05;;;;;;;2.10;1.07;;;13.50;59.50;;;;;;4908471;29;20230;-84
2023/04/29 00:42:34;;;;;;;1.43;1.17;;;13.40;59.60;;;;;;4913321;29;20203;-83
2023/04/29 00:45:03;;;;;;;2.23;1.13;;;13.40;59.70;;;;;;4912744;29;20204;-84
2023/04/29 00:47:34;;;;;;;2.37;0.90;;;13.40;59.80;;;;;;4909550;29;20591;-84
2023/04/29 00:50:04;;;;;;;1.17;0.90;;;13.30;59.90;;;;;;4910007;29;20200;-85
2023/04/29 00:52:34;;;;;;;2.53;1.60;;;13.30;60.00;;;;;;4910951;29;20204;-84
2023/04/29 00:55:04;;;;;;;0.93;0.73;;;13.20;60.10;;;;;;4909124;29;20207;-83
2023/04/29 00:57:33;;;;;;;3.03;1.17;;;13.20;60.20;;;;;;4908552;29;20208;-84
2023/04/29 01:00:02;;;;;;;2.07;0.97;;;13.20;60.30;;;;;;4914585;29;20703;-84
2023/04/29 01:02:31;;;;;;;0.90;0.73;;;13.10;60.40;;;;;;4912025;29;20223;-84
2023/04/29 01:05:01;;;;;;;1.50;0.83;;;13.10;60.50;;;;;;4912396;29;20227;-84
2023/04/29 01:07:42;;;;;;;2.63;1.10;;;13.10;60.70;;;;;;4905865;29;20211;-84
2023/04/29 01:10:15;;;;;;;1.33;1.10;;;13.00;61.00;;;;;;4911468;29;20683;-84
2023/04/29 01:12:46;;;;;;;1.57;0.83;;;13.00;61.20;;;;;;4911247;29;20571;-84
2023/04/29 01:15:22;;;;;;;0.80;0.80;;;12.90;61.20;;;;;;4912827;29;20204;-84
2023/04/29 01:17:56;;;;;;;1.40;1.13;;;12.90;61.70;;;;;;4910548;29;20204;-84
2023/04/29 01:20:30;;;;;;;3.03;1.03;;;12.90;61.90;;;;;;4911786;29;20775;-84
2023/04/29 01:22:58;;;;;;;2.50;0.83;;;12.80;62.20;;;;;;4911513;29;20199;-84
2023/04/29 01:25:28;;;;;;;2.70;0.60;;;12.80;62.40;;;;;;4908079;29;20271;-84
2023/04/29 01:28:05;;;;;;;0.77;0.63;;;12.70;62.40;;;;;;4906004;29;20202;-84
2023/04/29 01:30:44;;;;;;;0.70;0.70;;;12.70;62.40;;;;;;4905289;29;20912;-84
2023/04/29 01:33:21;;;;;;;1.70;0.60;;;12.70;62.60;;;;;;4907404;29;20196;-84
2023/04/29 01:36:08;;;;;;;2.00;1.23;;;12.60;62.70;;;;;;4901561;29;20231;-84
2023/04/29 01:38:44;;;;;;;0.70;0.70;;;12.60;63.00;;;;;;4870521;29;20899;-84
2023/04/29 01:41:18;;;;;;;1.87;0.90;;;12.50;63.00;;;;;;4905036;29;20699;-84
2023/04/29 01:43:50;;;;;;;2.00;1.17;;;12.50;63.20;;;;;;4910175;29;20664;-84
2023/04/29 01:46:19;;;;;;;2.13;1.13;;;12.50;63.30;;;;;;4908048;29;20200;-83
2023/04/29 01:48:47;;;;;;;3.40;1.20;;;12.50;63.40;;;;;;4904918;29;20227;-84
2023/04/29 01:51:16;;;;;;;2.40;1.10;;;12.40;63.50;;;;;;4907556;29;20540;-84
2023/04/29 01:53:44;;;;;;;1.30;0.83;;;12.40;63.60;;;;;;4907276;29;20215;-84
2023/04/29 01:56:15;;;;;;;0.77;0.53;;;12.40;63.70;;;;;;4907435;29;20223;-84
2023/04/29 01:58:43;;;;;;;2.50;1.33;;;12.40;63.90;;;;;;4911048;29;20208;-84
2023/04/29 02:01:12;;;;;;;0.70;0.70;;;12.30;64.10;;;;;;4909507;29;20307;-84
2023/04/29 02:03:41;;;;;;;0.50;0.50;;;12.30;64.20;;;;;;4914801;29;20207;-83
2023/04/29 02:06:09;;;;;;;2.17;1.47;;;12.30;64.40;;;;;;4903900;29;20207;-84
2023/04/29 02:08:38;;;;;;;1.50;1.20;;;12.20;64.50;;;;;;4907039;29;20212;-84
2023/04/29 02:11:06;;;;;;;3.90;0.90;;;12.20;64.60;;;;;;4911133;29;20672;-84
2023/04/29 02:13:36;;;;;;;1.10;1.00;;;12.20;64.90;;;;;;4907093;29;20224;-83
2023/04/29 02:16:09;;;;;;;1.23;0.77;;;12.20;64.90;;;;;;4909317;29;20653;-84
2023/04/29 02:18:38;;;;;;;1.57;0.77;;;12.10;65.00;;;;;;4903255;29;20203;-84
2023/04/29 02:21:07;;;;;;;1.03;0.90;;;12.10;65.10;;;;;;4907387;29;20227;-83
2023/04/29 02:23:36;;;;;;;2.90;1.53;;;12.10;65.10;;;;;;4911078;29;20203;-84
2023/04/29 02:26:06;;;;;;;0.80;0.73;;;12.00;65.20;;;;;;4904939;29;20204;-84
2023/04/29 02:28:36;;;;;;;1.30;1.10;;;12.00;65.20;;;;;;4912988;29;20210;-84
2023/04/29 02:31:04;;;;;;;0.97;0.70;;;12.00;65.40;;;;;;4911815;29;20715;-84
2023/04/29 02:33:33;;;;;;;1.77;0.83;;;12.00;65.50;;;;;;4910116;29;20211;-84
2023/04/29 02:36:02;;;;;;;2.73;1.93;;;11.90;65.60;;;;;;4911012;29;20263;-84
2023/04/29 02:38:30;;;;;;;3.03;1.03;;;11.90;65.70;;;;;;4915666;29;20206;-84
2023/04/29 02:40:59;;;;;;;3.10;1.40;;;11.90;65.80;;;;;;4918612;29;20215;-84
2023/04/29 02:43:29;;;;;;;2.30;1.33;;;11.90;66.30;;;;;;4911284;29;20596;-83
2023/04/29 02:46:00;;;;;;;1.13;1.03;;;11.80;66.60;;;;;;4915262;29;20202;-84
2023/04/29 02:48:28;;;;;;;3.17;1.00;;;11.80;66.70;;;;;;4916747;29;20807;-84
2023/04/29 02:50:57;;;;;;;2.10;1.10;;;11.80;67.00;;;;;;4915236;29;20208;-84
2023/04/29 02:53:25;;;;;;;2.43;1.07;;;11.70;67.10;;;;;;4912608;29;20216;-84
2023/04/29 02:55:57;;;;;;;0.73;0.73;;;11.70;67.20;;;;;;4909096;29;20210;-84
2023/04/29 02:58:26;;;;;;;1.67;1.10;;;11.70;67.20;;;;;;4907650;29;20222;-84
2023/04/29 03:00:54;;;;;;;3.13;1.97;;;11.60;67.20;;;;;;4910478;29;20564;-84
2023/04/29 03:03:24;;;;;;;1.07;0.80;;;11.60;67.40;;;;;;4906331;29;20686;-84
2023/04/29 03:05:53;;;;;;;1.10;1.00;;;11.60;67.40;;;;;;4906262;29;20199;-84
2023/04/29 03:08:22;;;;;;;1.63;1.03;;;11.60;67.50;;;;;;4922232;29;20656;-84
2023/04/29 03:10:50;;;;;;;1.27;0.80;;;11.50;67.60;;;;;;4907106;29;20216;-84
2023/04/29 03:13:19;;;;;;;1.27;0.93;;;11.50;67.70;;;;;;4908338;29;20584;-82
2023/04/29 03:15:48;;;;;;;2.53;1.63;;;11.50;67.80;;;;;;4910554;29;20211;-82
2023/04/29 03:18:17;;;;;;;1.63;1.23;;;11.50;68.00;;;;;;4908909;29;20208;-82
2023/04/29 03:20:47;;;;;;;1.30;0.87;;;11.50;68.10;;;;;;4908828;29;20227;-82
2023/04/29 03:23:15;;;;;;;2.47;0.90;;;11.50;68.10;;;;;;4912652;29;20413;-82
2023/04/29 03:25:44;;;;;;;2.23;1.70;;;11.40;68.10;;;;;;4915604;29;20200;-82
2023/04/29 03:28:13;;;;;;;1.73;1.17;;;11.40;68.10;;;;;;4905698;29;20192;-82
2023/04/29 03:30:42;;;;;;;3.10;1.60;;;11.50;68.20;;;;;;4907462;29;20838;-82
2023/04/29 03:33:10;;;;;;;1.53;1.10;;;11.50;68.40;;;;;;4914120;29;20203;-82
2023/04/29 03:35:39;;;;;;;1.33;1.07;;;11.40;68.40;;;;;;4911902;29;20212;-84
2023/04/29 03:38:09;;;;;;;5.87;2.67;;;11.40;69.30;;;;;;4909378;29;20204;-83
2023/04/29 03:40:38;;;;;;;8.07;4.93;;;11.40;69.10;;;;;;4914426;29;20204;-84
2023/04/29 03:43:07;;;;;;;10.43;4.13;;;11.50;69.00;;;;;;4914822;29;20315;-83
2023/04/29 03:45:36;;;;;;;6.60;4.20;;;11.50;69.10;;;;;;4905427;29;20201;-84
2023/04/29 03:48:06;;;;;;;10.17;5.47;;;11.40;69.40;;;;;;4912502;29;20256;-84
2023/04/29 03:50:36;;;;;;;8.20;5.30;;;11.40;69.60;;;;;;4909219;29;20200;-84
2023/04/29 03:53:05;;;;;;;5.97;4.53;;;11.40;69.90;;;;;;4910659;29;20552;-84
2023/04/29 03:55:35;;;;;;;7.93;4.73;;;11.50;69.90;;;;;;4911572;29;20222;-84
2023/04/29 03:58:03;;;;;;;3.57;3.03;;;11.40;69.90;;;;;;4910593;29;20222;-84
2023/04/29 04:00:32;;;;;;;4.87;3.33;;;11.50;69.80;;;;;;4910508;29;20218;-84
2023/04/29 04:03:01;;;;;;;6.90;2.87;;;11.50;70.20;;;;;;4915381;29;20218;-84
2023/04/29 04:05:33;;;;;;;11.63;3.30;;;11.50;70.70;;;;;;4914392;29;20318;-84
2023/04/29 04:08:01;;;;;;;12.00;2.63;;;11.50;70.90;;;;;;4904128;29;20204;-84
2023/04/29 04:10:30;;;;;;;3.17;1.97;;;11.50;70.90;;;;;;4911314;29;20212;-84
2023/04/29 04:12:59;;;;;;;2.10;1.53;;;11.50;71.90;;;;;;4906103;29;20211;-85
2023/04/29 04:15:28;;;;;;;2.97;1.50;;;11.50;71.60;;;;;;4900263;29;20214;-84
2023/04/29 04:17:57;;;;;;;2.60;1.90;;;11.50;71.40;;;;;;4899880;29;20214;-85
2023/04/29 04:20:25;;;;;;;3.73;2.17;;;11.60;71.70;;;;;;4901800;29;20676;-84
2023/04/29 04:22:54;;;;;;;2.50;1.77;;;11.60;71.50;;;;;;4901744;29;20743;-83
2023/04/29 04:25:23;;;;;;;4.73;1.67;;;11.60;71.50;;;;;;4910271;29;20211;-84
2023/04/29 04:27:51;;;;;;;2.60;1.50;;;11.60;71.60;;;;;;4905722;29;20203;-83
2023/04/29 04:30:21;;;;;;;4.37;1.93;;;11.70;71.70;;;;;;4904704;29;20728;-83
2023/04/29 04:32:49;;;;;;;1.47;1.10;;;11.70;71.60;;;;;;4906703;29;20233;-84
2023/04/29 04:35:18;;;;;;;2.30;1.00;;;11.70;71.40;;;;;;4906406;29;20200;-83
2023/04/29 04:37:47;;;;;;;1.20;1.07;;;11.80;71.10;;;;;;4910132;29;20215;-84
2023/04/29 04:40:15;;;;;;;3.77;2.27;;;11.80;71.00;;;;;;4904594;29;20200;-84
2023/04/29 04:42:44;;;;;;;1.43;1.33;;;11.90;71.00;;;;;;4905104;29;20311;-83
2023/04/29 04:45:13;;;;;;;3.50;2.33;;;11.90;71.00;;;;;;4904243;29;20197;-84
2023/04/29 04:47:43;;;;;;;2.17;1.70;;;12.00;71.00;;;;;;4905612;29;20211;-83
2023/04/29 04:50:12;;;;;;;1.90;1.70;;;12.00;70.90;;;;;;4909579;29;20204;-82
2023/04/29 04:52:41;;;;;;;4.03;1.80;;;12.10;70.70;;;;;;4908228;29;20546;-83
2023/04/29 04:55:10;;;;;;;4.07;1.73;;;12.10;70.50;;;;;;4913872;29;20281;-84
2023/04/29 04:57:42;;;;;;;2.83;2.03;;;12.20;70.80;;;;;;4912650;29;20204;-83
2023/04/29 05:00:11;;;;;;;1.60;1.20;;;12.20;70.70;;;;;;4905060;29;20677;-84
2023/04/29 05:02:40;;;;;;;4.17;1.80;;;12.20;70.50;;;;;;4911179;29;20224;-82
2023/04/29 05:05:10;;;;;;;6.23;1.80;;;12.30;70.40;;;;;;4917513;29;20203;-82
2023/04/29 05:07:39;;;;;;;1.50;1.40;;;12.40;70.40;;;;;;4913102;29;20207;-84
2023/04/29 05:10:08;;;;;;;2.87;1.63;;;12.50;70.40;;;;;;4916155;29;20223;-80
2023/04/29 05:12:39;;;;;;;9.43;2.97;;;12.50;70.10;;;;;;4903980;29;20234;-84
2023/04/29 05:15:08;;;;;;;1.33;0.97;;;12.60;70.20;;;;;;4908244;29;20204;-83
2023/04/29 05:17:37;;;;;;;3.67;1.97;;;12.60;70.00;;;;;;4909211;29;20291;-82
2023/04/29 05:20:07;;;;;;;3.47;2.47;;;12.70;70.20;;;;;;4907380;29;20214;-82
2023/04/29 05:22:37;;;;;;;2.83;1.87;;;12.80;70.00;;;;;;4914631;29;20261;-81
2023/04/29 05:25:06;;;;;;;5.83;3.17;;;12.80;69.90;;;;;;4909382;29;20208;-84
2023/04/29 05:27:35;;;;;;;2.30;2.00;;;12.90;69.40;;;;;;4914051;29;20208;-82
2023/04/29 05:30:04;;;;;;;4.70;2.50;;;12.90;69.30;;;;;;4911297;29;22520;-83
2023/04/29 05:32:32;;;;;;;5.57;2.40;;;13.00;69.00;;;;;;4913821;29;20200;-82
2023/04/29 05:35:01;;;;;;;2.53;1.70;;;13.10;69.00;;;;;;4911924;29;20275;-82
2023/04/29 05:37:30;;;;;;;5.20;2.73;;;13.20;69.00;;;;;;4904846;29;20667;-82
2023/04/29 05:40:05;;;;;;;3.77;2.07;;;13.20;68.70;;;;;;4905178;29;20191;-83
2023/04/29 05:42:34;;;;;;;4.73;2.23;;;13.30;68.70;;;;;;4911507;29;20223;-84
2023/04/29 05:45:03;;;;;;;4.80;1.97;;;13.30;68.50;;;;;;4905999;29;20732;-83
2023/04/29 05:47:31;;;;;;;3.30;2.23;;;13.40;68.30;;;;;;4908358;29;20631;-80
2023/04/29 05:50:00;;;;;;;2.57;1.70;;;13.50;68.10;;;;;;4904872;29;20207;-83
2023/04/29 05:52:28;;;;;;;3.23;1.73;;;13.50;67.80;;;;;;4907049;29;20203;-81
2023/04/29 05:55:19;;;;;;;2.93;1.47;;;13.60;67.00;;;;;;4906285;29;20646;-85
2023/04/29 05:57:50;;;;;;;2.13;1.40;;;13.70;66.60;;;;;;4906977;29;20577;-84
2023/04/29 06:00:19;;;;;;;1.97;1.27;;;13.80;66.50;;;;;;4905272;29;20208;-85
2023/04/29 06:02:47;;;;;;;2.30;1.97;;;13.80;66.40;;;;;;4911747;29;20211;-83
2023/04/29 06:05:26;;;;;;;3.33;1.50;;;13.90;66.40;;;;;;4899635;29;20223;-84
2023/04/29 06:07:55;;;;;;;3.07;1.67;;;13.90;65.50;;;;;;4915494;29;20203;-83
2023/04/29 06:10:25;;;;;;;2.83;1.70;;;14.00;66.00;;;;;;4911687;29;20196;-85
2023/04/29 06:12:54;;;;;;;4.20;1.63;;;14.00;64.50;;;;;;4918944;29;20222;-84
2023/04/29 06:15:23;;;;;;;2.10;1.33;;;14.10;64.80;;;;;;4918156;29;20759;-85
2023/04/29 06:17:52;;;;;;;1.77;1.37;;;14.20;64.50;;;;;;4911621;29;20211;-82
2023/04/29 06:20:21;;;;;;;2.77;1.37;;;14.30;64.40;;;;;;4908804;29;20219;-83
2023/04/29 06:22:50;;;;;;;3.03;1.90;;;14.40;64.30;;;;;;4910504;29;20687;-80
2023/04/29 06:25:19;;;;;;;5.23;2.13;;;14.40;61.80;;;;;;4914385;29;20250;-83
2023/04/29 06:27:50;;;;;;;2.27;1.70;;;14.50;61.70;;;;;;4911308;29;20199;-84
2023/04/29 06:30:19;;;;;;;1.17;1.00;;;14.60;61.90;;;;;;4914486;29;20653;-82
2023/04/29 06:32:47;;;;;;;4.00;1.77;;;14.60;61.70;;;;;;4914166;29;20209;-81
2023/04/29 06:35:16;;;;;;;1.87;1.53;;;14.70;63.00;;;;;;4912806;29;20243;-85
2023/04/29 06:37:45;;;;;;;2.80;1.20;;;14.80;62.10;;;;;;4914382;29;20215;-82
2023/04/29 06:40:15;;;;;;;1.80;1.23;;;14.90;61.70;;;;;;4910525;29;20566;-86
2023/04/29 06:42:53;;;;;;;2.70;1.07;;;15.00;61.30;;;;;;4913115;29;20199;-82
2023/04/29 06:45:23;;;;;;;1.23;1.10;;;15.00;61.20;;;;;;4910472;29;20208;-83
2023/04/29 06:47:52;;;;;;;8.07;2.60;;;15.20;61.30;;;;;;4908832;29;20203;-81
2023/04/29 06:50:20;;;;;;;8.67;2.13;;;15.20;61.10;;;;;;4909957;29;20207;-82
2023/04/29 06:52:49;;;;;;;2.40;1.17;;;15.30;61.30;;;;;;4913568;29;20690;-82
2023/04/29 06:55:17;;;;;;;2.93;1.60;;;15.40;59.90;;;;;;4909508;29;20618;-83
2023/04/29 06:57:45;;;;;;;1.80;1.07;;;15.50;59.60;;;;;;4913246;29;20256;-82
2023/04/29 07:00:18;;;;;;;4.07;1.40;;;15.50;58.30;;;;;;4910645;29;20208;-81
2023/04/29 07:02:46;;;;;;;2.07;1.37;;;15.50;58.30;;;;;;4912226;29;20231;-82
2023/04/29 07:05:15;;;;;;;1.83;0.70;;;15.60;57.50;;;;;;4913606;29;20673;-83
2023/04/29 07:07:43;;;;;;;2.93;1.40;;;15.60;57.90;;;;;;4910339;29;20214;-81
2023/04/29 07:10:12;;;;;;;8.83;1.40;;;15.70;58.40;;;;;;4910811;29;20211;-80
2023/04/29 07:12:42;;;;;;;3.73;1.20;;;15.80;58.60;;;;;;4914567;29;20195;-80
2023/04/29 07:18:16;;;;;;;2.70;1.90;;;16.00;57.90;;;;;;4908376;29;20713;-79
2023/04/29 07:20:45;;;;;;;2.83;1.27;;;16.00;57.20;;;;;;4909256;29;20206;-78
2023/04/29 07:23:13;;;;;;;2.10;1.40;;;16.10;57.70;;;;;;4909096;29;20207;-81
2023/04/29 07:25:42;;;;;;;2.33;1.13;;;16.10;56.80;;;;;;4914690;29;20282;-80
2023/04/29 07:28:10;;;;;;;2.00;1.50;;;16.20;57.30;;;;;;4899677;29;20211;-80
2023/04/29 07:31:07;;;;;;;3.23;1.40;;;16.30;57.30;;;;;;4909298;29;20299;-81
2023/04/29 07:33:37;;;;;;;1.33;1.13;;;16.40;57.40;;;;;;4912530;29;20287;-78
2023/04/29 07:36:06;;;;;;;2.43;1.20;;;16.40;56.60;;;;;;4910999;29;20195;-80
2023/04/29 07:38:35;;;;;;;2.90;1.77;;;16.40;56.30;;;;;;4913386;29;20211;-80
2023/04/29 07:41:04;;;;;;;1.83;1.00;;;16.50;56.00;;;;;;4913799;29;20203;-80
2023/04/29 07:43:32;;;;;;;3.47;1.23;;;16.50;56.30;;;;;;4917068;29;20247;-80
2023/04/29 07:46:01;;;;;;;1.33;1.00;;;16.60;56.50;;;;;;4906819;29;20203;-81
2023/04/29 07:48:29;;;;;;;3.13;1.50;;;16.60;56.80;;;;;;4914762;29;20207;-80
2023/04/29 07:50:59;;;;;;;3.27;1.33;;;16.70;56.50;;;;;;4912451;29;20658;-81
2023/04/29 07:53:27;;;;;;;4.77;2.00;;;16.70;56.10;;;;;;4917248;29;20219;-79
2023/04/29 07:55:56;;;;;;;2.77;1.30;;;16.80;56.40;;;;;;4904895;29;20670;-80
2023/04/29 07:58:24;;;;;;;6.27;1.70;;;16.90;56.70;;;;;;4905314;29;20212;-78
2023/04/29 08:00:53;;;;;;;1.50;1.07;;;16.90;56.50;;;;;;4912904;29;20195;-79
2023/04/29 08:03:21;;;;;;;5.53;2.00;;;16.90;54.70;;;;;;4911293;29;20234;-76
2023/04/29 08:05:52;;;;;;;2.73;2.20;;;17.00;55.40;;;;;;4916881;29;20657;-77
2023/04/29 08:08:22;;;;;;;5.23;1.73;;;16.90;53.90;;;;;;4914387;29;20195;-79
2023/04/29 08:10:50;;;;;;;1.83;1.30;;;17.00;54.60;;;;;;4916184;29;20208;-77
2023/04/29 08:13:19;;;;;;;4.77;2.30;;;17.00;53.80;;;;;;4910208;29;20613;-79
2023/04/29 08:15:47;;;;;;;2.67;1.40;;;17.10;54.80;;;;;;4917144;29;20210;-80
2023/04/29 08:18:15;;;;;;;3.07;1.53;;;17.10;55.20;;;;;;4907197;29;20196;-78
2023/04/29 08:20:44;;;;;;;2.77;1.27;;;17.10;54.80;;;;;;4913999;29;20810;-79
2023/04/29 08:23:12;;;;;;;2.23;1.47;;;17.20;55.00;;;;;;4911589;29;20624;-77
2023/04/29 08:25:43;;;;;;;1.47;1.20;;;17.20;55.20;;;;;;4912335;29;20291;-80
2023/04/29 08:28:12;;;;;;;3.63;1.73;;;17.20;54.10;;;;;;4910964;29;20209;-79
2023/04/29 08:30:41;;;;;;;4.93;0.90;;;17.30;54.40;;;;;;4909522;29;20628;-80
2023/04/29 08:33:11;;;;;;;2.07;1.30;;;17.40;54.70;;;;;;4915386;29;20263;-77
2023/04/29 08:35:40;;;;;;;3.83;1.40;;;17.30;52.80;;;;;;4914743;29;20205;-77
2023/04/29 08:38:09;;;;;;;3.03;1.93;;;17.40;53.40;;;;;;4909338;29;20239;-79
2023/04/29 08:40:44;;;;;;;5.30;1.90;;;17.40;53.50;;;;;;4910944;29;20254;-80
2023/04/29 08:43:14;;;;;;;2.50;1.83;;;17.50;53.90;;;;;;4912578;29;20202;-81
2023/04/29 08:45:43;;;;;;;4.03;0.90;;;17.60;54.10;;;;;;4910026;29;20682;-79
2023/04/29 08:48:12;;;;;;;2.47;1.43;;;17.60;54.40;;;;;;4908084;29;20207;-81
2023/04/29 08:50:42;;;;;;;1.97;1.33;;;17.70;54.60;;;;;;4911203;29;20650;-79
2023/04/29 08:53:11;;;;;;;1.47;1.17;;;17.70;54.30;;;;;;4915446;29;20235;-79
2023/04/29 08:55:44;;;;;;;1.73;1.13;;;17.70;53.60;;;;;;4906989;29;20371;-81
2023/04/29 08:58:14;;;;;;;1.07;0.90;;;17.80;54.00;;;;;;4915961;29;20198;-82
2023/04/29 09:00:43;;;;;;;3.03;1.83;;;17.80;54.00;;;;;;4907731;29;20224;-79
2023/04/29 09:03:17;;;;;;;3.60;1.83;;;17.90;54.20;;;;;;4905454;29;20723;-80
2023/04/29 09:05:52;;;;;;;2.73;1.47;;;17.90;54.10;;;;;;4913988;29;20211;-81
2023/04/29 09:08:22;;;;;;;2.57;1.07;;;18.00;54.10;;;;;;4908412;29;20329;-81
2023/04/29 09:10:52;;;;;;;1.60;1.10;;;18.00;54.00;;;;;;4904916;29;20204;-79
2023/04/29 09:13:25;;;;;;;2.13;1.20;;;18.10;54.20;;;;;;4906584;29;20212;-82
2023/04/29 09:15:54;;;;;;;2.97;1.07;;;18.20;54.50;;;;;;4918071;29;20203;-82
2023/04/29 09:18:48;;;;;;;2.13;1.53;;;18.20;54.00;;;;;;4907620;29;20204;-80
2023/04/29 09:21:19;;;;;;;1.60;1.40;;;18.30;53.40;;;;;;4903941;29;20201;-80
2023/04/29 09:23:51;;;;;;;1.47;0.87;;;18.30;53.40;;;;;;4914890;29;20291;-80
2023/04/29 09:26:21;;;;;;;1.60;1.23;;;18.30;53.10;;;;;;4911118;29;20226;-80
2023/04/29 09:29:07;;;;;;;2.17;1.13;;;18.40;52.50;;;;;;4911475;29;20199;-80
2023/04/29 09:31:37;;;;;;;1.37;0.93;;;18.50;52.90;;;;;;4908546;29;20610;-78
2023/04/29 09:34:05;;;;;;;1.73;1.03;;;18.50;53.10;;;;;;4913383;29;20192;-79
2023/04/29 09:36:44;;;;;;;2.70;0.80;;;18.50;52.80;;;;;;4909864;29;20306;-81
2023/04/29 09:39:14;;;;;;;0.70;0.70;;;18.50;52.20;;;;;;4909919;29;20196;-81
2023/04/29 09:41:59;;;;;;;2.90;1.30;;;18.60;52.40;;;;;;4910893;29;20552;-79
2023/04/29 09:44:28;;;;;;;2.03;1.40;;;18.60;52.60;;;;;;4914893;29;20668;-79
2023/04/29 09:47:03;;;;;;;2.63;1.57;;;18.70;53.40;;;;;;4911321;29;20196;-82
2023/04/29 09:49:34;;;;;;;2.17;1.23;;;18.80;52.30;;;;;;4914114;29;20203;-81
2023/04/29 09:52:04;;;;;;;1.10;0.90;;;18.80;52.40;;;;;;4912367;29;20203;-78
2023/04/29 09:54:35;;;;;;;3.00;1.60;;;18.80;52.60;;;;;;4909231;29;20214;-80
2023/04/29 09:57:06;;;;;;;1.83;1.23;;;18.90;52.10;;;;;;4910242;29;20192;-82
2023/04/29 09:59:36;;;;;;;1.57;0.93;;;18.90;53.00;;;;;;4913120;29;20200;-79
2023/04/29 10:02:10;;;;;;;3.23;1.53;;;18.90;52.00;;;;;;4903835;29;20207;-82
2023/04/29 10:04:42;;;;;;;1.60;1.00;;;18.90;52.00;;;;;;4903775;29;20204;-80
2023/04/29 10:07:15;;;;;;;4.13;1.23;;;19.00;51.90;;;;;;4902546;29;20206;-82
2023/04/29 10:09:46;;;;;;;1.93;1.10;;;19.00;51.30;;;;;;4913980;29;20861;-84
2023/04/29 10:12:18;;;;;;;1.27;1.03;;;19.10;52.10;;;;;;4912006;29;20792;-80
2023/04/29 10:15:03;;;;;;;1.97;1.43;;;19.10;52.00;;;;;;4900274;29;20212;-77
2023/04/29 10:17:43;;;;;;;1.13;1.03;;;19.20;51.90;;;;;;4907584;29;20196;-78
2023/04/29 10:20:15;;;;;;;1.90;1.20;;;19.30;52.50;;;;;;4906580;29;20199;-77
2023/04/29 10:22:47;;;;;;;1.67;0.90;;;19.30;51.10;;;;;;4914111;29;20688;-78
2023/04/29 10:25:17;;;;;;;1.63;1.20;;;19.50;51.70;;;;;;4909558;29;20270;-78
2023/04/29 10:27:49;;;;;;;2.10;1.33;;;19.50;51.70;;;;;;4905321;29;20615;-79
2023/04/29 10:30:18;;;;;;;1.67;1.10;;;19.60;52.10;;;;;;4900772;29;20231;-81
2023/04/29 10:32:48;;;;;;;2.37;1.13;;;19.70;51.80;;;;;;4906783;29;20646;-79
2023/04/29 10:35:22;;;;;;;3.33;1.70;;;19.70;51.60;;;;;;4914167;29;20223;-80
2023/04/29 10:37:51;;;;;;;6.25;1.40;;;19.70;50.30;;;;;;4908193;29;20196;-78
2023/04/29 10:40:28;;;;;;;2.70;1.42;;;19.80;50.80;;;;;;4916118;29;20232;-77
2023/04/29 10:42:58;;;;;;;2.45;1.55;;;19.90;51.20;;;;;;4902754;29;20203;-78
2023/04/29 10:45:30;;;;;;;2.92;1.13;;;20.00;51.50;;;;;;4908856;29;20212;-77
2023/04/29 10:48:15;;;;;;;1.65;1.25;;;20.10;51.40;;;;;;4909743;29;20247;-79
2023/04/29 10:51:02;;;;;;;2.20;1.77;;;20.10;50.20;;;;;;4907730;29;20211;-77
2023/04/29 10:53:31;;;;;;;2.45;1.50;;;20.20;50.60;;;;;;4909457;29;20258;-79
2023/04/29 10:56:05;;;;;;;2.03;1.43;;;20.20;49.60;;;;;;4917946;29;20555;-77
2023/04/29 10:58:41;;;;;;;1.83;1.00;;;20.20;49.70;;;;;;4914092;29;20203;-79
2023/04/29 11:01:14;;;;;;;1.30;1.00;;;20.30;49.70;;;;;;4908852;29;20226;-79
2023/04/29 11:03:47;;;;;;;4.40;1.70;;;20.20;49.90;;;;;;4907077;29;20204;-80
2023/04/29 11:06:16;;;;;;;2.90;1.33;;;20.20;49.50;;;;;;4906615;29;20219;-81
2023/04/29 11:08:45;;;;;;;4.00;1.30;;;20.20;49.40;;;;;;4917120;29;20255;-79
2023/04/29 11:11:14;;;;;;;2.37;1.00;;;20.20;49.70;;;;;;4909925;29;20255;-80
2023/04/29 11:13:47;;;;;;;2.90;1.90;;;20.20;49.80;;;;;;4908954;29;20263;-80
2023/04/29 11:16:16;;;;;;;1.87;1.37;;;20.10;48.90;;;;;;4906203;29;21462;-80
2023/04/29 11:19:06;;;;;;;1.83;1.20;;;20.10;49.20;;;;;;4904393;29;20236;-80
2023/04/29 11:21:36;;;;;;;5.83;1.80;;;20.10;49.40;;;;;;4913037;29;20615;-81
2023/04/29 11:24:06;;;;;;;4.07;1.30;;;20.10;49.50;;;;;;4908200;29;20235;-81
2023/04/29 11:26:35;;;;;;;1.67;1.00;;;20.10;49.80;;;;;;4915249;29;20423;-81
2023/04/29 11:29:09;;;;;;;2.67;1.42;;;20.10;49.70;;;;;;4898858;29;20212;-79
2023/04/29 11:31:38;;;;;;;1.85;1.13;;;20.20;50.10;;;;;;4906677;29;20728;-80
2023/04/29 11:34:07;;;;;;;4.13;2.37;;;20.30;50.10;;;;;;4907197;29;20914;-79
2023/04/29 11:36:36;;;;;;;6.80;1.52;;;20.30;49.70;;;;;;4910038;29;20257;-81
2023/04/29 11:39:04;;;;;;;3.00;1.60;;;20.40;50.20;;;;;;4913858;29;20200;-81
2023/04/29 11:41:34;;;;;;;3.30;1.60;;;20.30;50.50;;;;;;4911956;29;20207;-81
2023/04/29 11:44:03;;;;;;;3.47;1.80;;;20.30;50.70;;;;;;4910751;29;20648;-80
2023/04/29 11:46:34;;;;;;;2.95;1.80;;;20.30;50.40;;;;;;4911003;29;20258;-80
2023/04/29 11:49:03;;;;;;;2.75;1.52;;;20.20;49.70;;;;;;4913276;29;20206;-80
2023/04/29 11:51:33;;;;;;;2.43;1.70;;;20.10;50.00;;;;;;4914285;29;20200;-81
2023/04/29 11:54:02;;;;;;;2.43;1.43;;;20.00;49.80;;;;;;4909295;29;20227;-80
2023/04/29 11:56:30;;;;;;;10.23;2.03;;;20.10;50.40;;;;;;4910764;29;20206;-79
2023/04/29 11:59:00;;;;;;;3.57;1.67;;;20.10;50.30;;;;;;4911196;29;20635;-81
2023/04/29 12:01:32;;;;;;;2.87;1.80;;;20.10;50.40;;;;;;4911071;29;20199;-81
2023/04/29 12:04:01;;;;;;;3.13;1.65;;;20.20;50.20;;;;;;4904077;29;20290;-81
2023/04/29 12:06:31;;;;;;;2.50;1.00;;;20.30;50.70;;;;;;4907137;29;20224;-83
2023/04/29 12:09:00;;;;;;;3.37;1.60;;;20.30;50.70;;;;;;4913481;29;20204;-81
2023/04/29 12:11:29;;;;;;;2.60;1.20;;;20.40;50.80;;;;;;4910679;29;20255;-79
2023/04/29 12:13:59;;;;;;;3.35;2.00;;;20.50;50.80;;;;;;4914831;29;20218;-80
2023/04/29 12:16:29;;;;;;;3.20;1.38;;;20.50;50.20;;;;;;4913409;29;20200;-77
2023/04/29 12:19:00;;;;;;;4.07;1.88;;;20.50;50.50;;;;;;4908281;29;20200;-78
2023/04/29 12:21:28;;;;;;;3.08;1.70;;;20.60;51.40;;;;;;4913290;29;20203;-77
2023/04/29 12:24:00;;;;;;;2.58;1.55;;;20.60;52.10;;;;;;4909840;29;20669;-78
2023/04/29 12:26:29;;;;;;;3.08;1.80;;;20.60;50.80;;;;;;4906931;29;20454;-78
2023/04/29 12:28:58;;;;;;;2.75;1.80;;;20.70;50.90;;;;;;4906713;29;20195;-79
2023/04/29 12:31:48;;;;;;;3.80;1.90;;;20.60;50.40;;;;;;4903302;29;20208;-80
2023/04/29 12:35:23;;;;;;;3.08;2.13;;;20.60;50.60;;;;;;4904695;29;20566;-81
2023/04/29 12:38:08;;;;;;;8.35;1.75;;;20.70;51.00;;;;;;4842465;29;20196;-77
2023/04/29 12:40:36;;;;;;;3.55;2.08;;;20.80;50.90;;;;;;4895741;29;20215;-78
2023/04/29 12:43:08;;;;;;;3.40;1.67;;;20.90;50.70;;;;;;4907043;29;20196;-79
2023/04/29 12:46:23;;;;;;;13.63;2.97;;;20.90;49.90;;;;;;4907797;29;20204;-82
2023/04/29 12:48:56;;;;;;;4.57;2.53;;;21.00;49.70;;;;;;4898561;29;20591;-79
2023/04/29 12:51:25;;;;;;;2.75;1.70;;;21.10;48.90;;;;;;4912765;29;20231;-79
2023/04/29 12:53:58;;;;;;;2.45;1.50;;;21.20;49.20;;;;;;4907378;29;20207;-78
2023/04/29 12:56:26;;;;;;;4.57;2.08;;;21.20;49.20;;;;;;4912028;29;20279;-79
2023/04/29 12:58:55;;;;;;;4.63;2.58;;;21.30;49.30;;;;;;4907651;29;20207;-77
2023/04/29 13:01:23;;;;;;;2.50;1.90;;;21.40;49.50;;;;;;4910371;29;20207;-79
2023/04/29 13:03:51;;;;;;;3.85;1.73;;;21.40;49.50;;;;;;4914490;29;20231;-79
2023/04/29 13:06:21;;;;;;;3.95;1.85;;;21.40;49.40;;;;;;4913045;29;20208;-78